Terminal Aerodrome Forecast
Issued by NWS

Home | Current Version | Previous Version | Graphics & Text | Print | Product List | Glossary On
Versions: 1 2 3 4 5 6 7 8 9 10 11 12 13 14 15 16 17 18 19 20 21 22 23 24 25 26 27
000
FTUS43 KFGF 210500
TAFBJI
TAF
KBJI 210538Z 2106/2206 32008KT P6SM OVC015
      TEMPO 2106/2110 OVC006
     FM211000 29007KT P6SM OVC015
     FM212100 31008KT P6SM BKN050
     FM220100 VRB04KT P6SM FEW250=

USA.gov is the U.S. government's official web portal to all federal, state and local government web resources and services.